Port Aransas, TX (78373)

06:50 PM CST del 22 Dicembre 2014 (GMT -0600)
Shutters PortA | Change Station
CLOSE
Current Station
Stazione meteo personale
Location: Port Aransas, TX
Altitudine: 16 ft
Stazioni meteo nelle vicinanze

Alt. 16 ft 27.84 °N, 97.06 °W | Updated 9 minutes ago

Clear
Sereno
64.9 °F
Sembra 64.9 °F
N
2.0
Vento Variabile Vento da SSE
Gusts 7.0 mph

Oggi
Massima -- | Minima -- °F
--% Possibilità di precip.
Ieri
Massima -- | Minima -- °F
Precip. -- in
7:15 AM 5:38 PM
Luna nuova, 1% visible
Pressione 29.63 in
Visibilità 10.0 miglia
Nuvole Sereno
Punto di rugiada 64 °F
Umidità 96%
Piovosità 0.01 in
Spessore del manto nevoso Non disponibile.
Raggi UV 0 fuori da 12
Polline 8.40 fuori da 12
Qualità dell'aria Non disponibile.
Flu Activity Non disponibile.
METAR KRAS 230035Z AUTO 14004KT 10SM CLR 18/17 A2963 RMK AO2 T01800171

More Conditions Fewer Conditions

Pressione 29.63 in
Visibilità 10.0 miglia
Nuvole Sereno
Punto di rugiada 64 °F
Umidità 96%
Piovosità 0.01 in
Spessore del manto nevoso Non disponibile.
Raggi UV 0 fuori da 12
Polline 8.40 fuori da 12
Qualità dell'aria Non disponibile.
Flu Activity Non disponibile.
METAR KRAS 230035Z AUTO 14004KT 10SM CLR 18/17 A2963 RMK AO2 T01800171

More Conditions Fewer Conditions

10-Day Weather Forecast

Almanac

Astronomia

Dec. 22, 2014 Alba Tramonto
Ora attuale
Crepuscolo civile
Crepuscolo nautico
Crepuscolo astronomico
Luna
Estensione della luce visibile
Lunghezza del giorno
Tomorrow will be .
, % of the Moon is Illuminated

Gli estremi di oggi

State Highs State Lows

Community

WunderPhotos

Upload Photos

1,779,740 foto caricate!

WunderBlogs® & News

Nearby

Qualità dell'aria

  Qualità dell'aria Indice AQ Inquinante
Not available.

Profondità neve

Stazione Profondità Altitudine

Attività sismica

Città  Distanza Mag. Data & Ora
Minimo Magnitudo Mostrato è 2.5.

Temperature delle acque costiere

Località Temperatura

Stazioni meteo nelle vicinanze